createdAt,value
2023-02-06T00:00:12.223Z,0.00
2023-02-06T00:01:12.209Z,0.00
2023-02-06T00:02:12.263Z,0.00
2023-02-06T00:03:12.210Z,0.00
2023-02-06T00:04:12.171Z,0.00
2023-02-06T00:05:12.164Z,0.00
2023-02-06T00:06:12.186Z,0.00
2023-02-06T00:07:12.139Z,0.00
2023-02-06T00:08:12.150Z,0.00
2023-02-06T00:09:12.131Z,0.00
2023-02-06T00:10:12.112Z,0.00
2023-02-06T00:11:12.103Z,0.00
2023-02-06T00:12:12.098Z,0.00
2023-02-06T00:13:12.099Z,0.00
2023-02-06T00:14:12.077Z,0.00
2023-02-06T00:15:12.070Z,0.00
2023-02-06T00:16:12.070Z,0.00
2023-02-06T00:17:12.168Z,0.00
2023-02-06T00:18:12.027Z,0.00
2023-02-06T00:19:12.067Z,0.00
2023-02-06T00:20:12.026Z,0.00
2023-02-06T00:21:11.988Z,0.00
2023-02-06T00:22:11.988Z,0.00
2023-02-06T00:23:11.997Z,0.00
2023-02-06T00:24:12.004Z,0.00
2023-02-06T00:25:11.966Z,0.00
2023-02-06T00:26:12.075Z,0.00
2023-02-06T00:27:11.979Z,0.00
2023-02-06T00:28:11.967Z,0.00
2023-02-06T00:29:11.985Z,0.00
2023-02-06T00:30:11.907Z,0.00
2023-02-06T00:31:12.031Z,0.00
2023-02-06T00:32:11.883Z,0.00
2023-02-06T00:33:11.870Z,0.00
2023-02-06T00:34:11.869Z,0.00
2023-02-06T00:35:11.862Z,0.00
2023-02-06T00:36:11.847Z,0.00
2023-02-06T00:37:11.987Z,0.00
2023-02-06T00:38:11.854Z,0.00
2023-02-06T00:39:11.846Z,0.00
2023-02-06T00:40:11.832Z,0.00
2023-02-06T00:41:11.805Z,0.00
2023-02-06T00:42:11.810Z,0.00
2023-02-06T00:43:11.824Z,0.00
2023-02-06T00:44:11.770Z,0.00
2023-02-06T00:45:11.768Z,0.00
2023-02-06T00:46:11.805Z,0.00
2023-02-06T00:47:11.740Z,0.00
2023-02-06T00:48:11.725Z,0.00
2023-02-06T00:49:11.769Z,0.00
2023-02-06T00:50:11.733Z,0.00
2023-02-06T00:51:11.690Z,0.00
2023-02-06T00:52:11.682Z,0.00
2023-02-06T00:53:11.688Z,0.00
2023-02-06T00:54:11.782Z,0.00
2023-02-06T00:55:11.669Z,0.00
2023-02-06T00:56:11.661Z,0.00
2023-02-06T00:57:11.685Z,0.00
2023-02-06T00:58:11.609Z,0.00
2023-02-06T00:59:11.636Z,0.00
2023-02-06T01:00:11.593Z,0.00
2023-02-06T01:01:11.593Z,0.00
2023-02-06T01:02:11.586Z,0.00
2023-02-06T01:03:11.591Z,0.00
2023-02-06T01:04:11.575Z,0.00
2023-02-06T01:05:11.606Z,0.00
2023-02-06T01:06:11.535Z,0.00
2023-02-06T01:07:11.532Z,0.00
2023-02-06T01:08:11.523Z,0.00
2023-02-06T01:09:11.537Z,0.00
2023-02-06T01:10:11.493Z,0.00
2023-02-06T01:11:11.509Z,0.00
2023-02-06T01:12:11.492Z,0.00
2023-02-06T01:13:11.541Z,0.00
2023-02-06T01:14:11.479Z,0.00
2023-02-06T01:15:11.445Z,0.00
2023-02-06T01:16:11.437Z,0.00
2023-02-06T01:17:11.422Z,0.00
2023-02-06T01:18:11.404Z,0.00
2023-02-06T01:19:11.424Z,0.00
2023-02-06T01:20:11.412Z,0.00
2023-02-06T01:21:11.383Z,0.00
2023-02-06T01:22:11.408Z,0.00
2023-02-06T01:23:11.359Z,0.00
2023-02-06T01:24:11.341Z,0.00
2023-02-06T01:25:11.349Z,0.00
2023-02-06T01:26:11.326Z,0.00
2023-02-06T01:27:11.332Z,0.00
2023-02-06T01:28:11.364Z,0.00
2023-02-06T01:29:11.300Z,0.00
2023-02-06T01:30:11.301Z,0.00
2023-02-06T01:31:11.302Z,0.00
2023-02-06T01:32:11.317Z,0.00
2023-02-06T01:33:11.256Z,0.00
2023-02-06T01:34:11.235Z,0.00
2023-02-06T01:35:11.279Z,0.00
2023-02-06T01:36:11.327Z,0.00
2023-02-06T01:37:11.224Z,0.00
2023-02-06T01:38:11.200Z,0.00
2023-02-06T01:39:11.201Z,0.00
2023-02-06T01:40:11.165Z,0.00
2023-02-06T01:41:11.163Z,0.00
2023-02-06T01:42:11.154Z,0.00
2023-02-06T01:43:11.151Z,0.00
2023-02-06T01:44:11.157Z,0.00
2023-02-06T01:45:11.222Z,0.00
2023-02-06T01:46:11.121Z,0.00
2023-02-06T01:47:11.142Z,0.00
2023-02-06T01:48:11.097Z,0.00
2023-02-06T01:49:11.101Z,0.00
2023-02-06T01:50:11.071Z,0.00
2023-02-06T01:51:11.053Z,0.00
2023-02-06T01:52:11.054Z,0.00
2023-02-06T01:53:11.037Z,0.00
2023-02-06T01:54:11.026Z,0.00
2023-02-06T01:55:11.028Z,0.00
2023-02-06T01:56:11.018Z,0.00
2023-02-06T01:57:11.001Z,0.00
2023-02-06T01:58:10.992Z,0.00
2023-02-06T01:59:10.994Z,0.00
2023-02-06T02:00:10.969Z,0.00
2023-02-06T02:01:10.964Z,0.00
2023-02-06T02:02:10.996Z,0.00
2023-02-06T02:03:10.920Z,0.00
2023-02-06T02:04:10.940Z,0.00
2023-02-06T02:05:10.983Z,0.00
2023-02-06T02:06:10.894Z,0.00
2023-02-06T02:07:10.881Z,0.00
2023-02-06T02:08:10.901Z,0.00
2023-02-06T02:09:10.872Z,0.00
2023-02-06T02:10:10.860Z,0.00
2023-02-06T02:11:10.970Z,0.00
2023-02-06T02:12:10.882Z,0.00
2023-02-06T02:13:10.812Z,0.00
2023-02-06T02:14:10.813Z,0.00
2023-02-06T02:15:10.816Z,0.00
2023-02-06T02:16:10.897Z,0.00
2023-02-06T02:17:10.775Z,0.00
2023-02-06T02:18:10.775Z,0.00
2023-02-06T02:19:10.762Z,0.00
2023-02-06T02:20:10.759Z,0.00
2023-02-06T02:21:10.764Z,0.00
2023-02-06T02:22:10.738Z,0.00
2023-02-06T02:23:10.716Z,0.00
2023-02-06T02:24:10.710Z,0.00
2023-02-06T02:25:10.716Z,0.00
2023-02-06T02:26:10.859Z,0.00
2023-02-06T02:27:10.864Z,0.00
2023-02-06T02:28:10.674Z,0.00
2023-02-06T02:29:10.646Z,0.00
2023-02-06T02:30:10.655Z,0.00
2023-02-06T02:31:10.711Z,0.00
2023-02-06T02:32:10.630Z,0.00
2023-02-06T02:33:10.615Z,0.00
2023-02-06T02:34:10.711Z,0.00
2023-02-06T02:35:10.605Z,0.00
2023-02-06T02:36:10.598Z,0.00
2023-02-06T02:37:10.581Z,0.00
2023-02-06T02:38:10.594Z,0.00
2023-02-06T02:39:10.571Z,0.00
2023-02-06T02:40:10.551Z,0.00
2023-02-06T02:41:10.556Z,0.00
2023-02-06T02:42:10.548Z,0.00
2023-02-06T02:43:10.535Z,0.00
2023-02-06T02:44:10.521Z,0.00
2023-02-06T02:45:10.496Z,0.00
2023-02-06T02:46:10.578Z,0.00
2023-02-06T02:47:10.470Z,0.00
2023-02-06T02:48:10.452Z,0.00
2023-02-06T02:49:10.442Z,0.00
2023-02-06T02:50:10.441Z,0.00
2023-02-06T02:51:10.439Z,0.00
2023-02-06T02:52:10.425Z,0.00
2023-02-06T02:53:10.406Z,0.00
2023-02-06T02:54:10.392Z,0.00
2023-02-06T02:55:10.397Z,0.00
2023-02-06T02:56:10.388Z,0.00
2023-02-06T02:57:10.379Z,0.00
2023-02-06T02:58:10.352Z,0.00
2023-02-06T02:59:10.375Z,0.00
2023-02-06T03:00:10.345Z,0.00
2023-02-06T03:01:10.405Z,0.00
2023-02-06T03:02:10.366Z,0.00
2023-02-06T03:03:10.324Z,0.00
2023-02-06T03:04:10.294Z,0.00
2023-02-06T03:05:10.267Z,0.00
2023-02-06T03:06:10.284Z,0.00
2023-02-06T03:07:10.286Z,0.00
2023-02-06T03:08:10.251Z,0.00
2023-02-06T03:09:10.237Z,0.00
2023-02-06T03:10:10.228Z,0.00
2023-02-06T03:11:10.233Z,0.00
2023-02-06T03:12:10.207Z,0.00
2023-02-06T03:13:10.236Z,0.00
2023-02-06T03:14:10.186Z,0.00
2023-02-06T03:15:10.176Z,0.00
2023-02-06T03:16:10.183Z,0.00
2023-02-06T03:17:10.195Z,0.00
2023-02-06T03:18:10.144Z,0.00
2023-02-06T03:19:10.131Z,0.00
2023-02-06T03:20:10.211Z,0.00
2023-02-06T03:21:10.209Z,0.00
2023-02-06T03:22:10.115Z,0.00
2023-02-06T03:23:10.103Z,0.00
2023-02-06T03:24:10.101Z,0.00
2023-02-06T03:25:10.100Z,0.00
2023-02-06T03:26:10.074Z,0.00
2023-02-06T03:27:10.064Z,0.00
2023-02-06T03:28:10.078Z,0.00
2023-02-06T03:29:10.044Z,0.00
2023-02-06T03:30:10.051Z,0.00
2023-02-06T03:31:10.047Z,0.00
2023-02-06T03:32:10.052Z,0.00
2023-02-06T03:33:09.983Z,0.00
2023-02-06T03:34:09.993Z,0.00
2023-02-06T03:35:09.972Z,0.00
2023-02-06T03:36:09.975Z,0.00
2023-02-06T03:37:09.993Z,0.00
2023-02-06T03:38:09.951Z,0.00
2023-02-06T03:39:09.925Z,0.00
2023-02-06T03:40:10.007Z,0.00
2023-02-06T03:41:09.918Z,0.00
2023-02-06T03:42:09.925Z,0.00
2023-02-06T03:43:09.943Z,0.00
2023-02-06T03:44:09.881Z,0.00
2023-02-06T03:45:09.883Z,0.00
2023-02-06T03:46:09.941Z,0.00
2023-02-06T03:47:09.935Z,0.00
2023-02-06T03:48:09.840Z,0.00
2023-02-06T03:49:09.889Z,0.00
2023-02-06T03:50:09.870Z,0.00
2023-02-06T03:51:09.814Z,0.00
2023-02-06T03:52:09.828Z,0.00
2023-02-06T03:53:09.789Z,0.00
2023-02-06T03:54:09.774Z,0.00
2023-02-06T03:55:09.790Z,0.00
2023-02-06T03:56:09.782Z,0.00
2023-02-06T03:57:09.765Z,0.00
2023-02-06T03:58:09.747Z,0.00
2023-02-06T03:59:09.721Z,0.00
2023-02-06T04:00:09.728Z,0.00
2023-02-06T04:01:09.723Z,0.00
2023-02-06T04:02:09.854Z,0.00
2023-02-06T04:03:09.683Z,0.00
2023-02-06T04:04:09.685Z,0.00
2023-02-06T04:05:09.672Z,0.00
2023-02-06T04:06:09.684Z,0.00
2023-02-06T04:07:09.684Z,0.00
2023-02-06T04:08:09.703Z,0.00
2023-02-06T04:09:09.631Z,0.00
2023-02-06T04:10:09.650Z,0.00
2023-02-06T04:11:09.644Z,0.00
2023-02-06T04:12:09.673Z,0.00
2023-02-06T04:13:09.637Z,0.00
2023-02-06T04:14:09.598Z,0.00
2023-02-06T04:15:09.569Z,0.00
2023-02-06T04:16:09.627Z,0.00
2023-02-06T04:17:09.568Z,0.00
2023-02-06T04:18:09.545Z,0.00
2023-02-06T04:19:09.523Z,0.00
2023-02-06T04:20:09.546Z,0.00
2023-02-06T04:21:09.519Z,0.00
2023-02-06T04:22:09.506Z,0.00
2023-02-06T04:23:09.495Z,0.00
2023-02-06T04:24:09.494Z,0.00
2023-02-06T04:25:09.510Z,0.00
2023-02-06T04:26:09.462Z,0.00
2023-02-06T04:27:09.469Z,0.00
2023-02-06T04:28:09.522Z,0.00
2023-02-06T04:29:09.430Z,0.00
2023-02-06T04:30:09.427Z,0.00
2023-02-06T04:31:09.516Z,0.00
2023-02-06T04:32:09.399Z,0.00
2023-02-06T04:33:09.414Z,0.00
2023-02-06T04:34:09.372Z,0.00
2023-02-06T04:35:09.358Z,0.00
2023-02-06T04:36:09.374Z,0.00
2023-02-06T04:37:09.370Z,0.00
2023-02-06T04:38:09.342Z,0.00
2023-02-06T04:39:09.354Z,0.00
2023-02-06T04:40:09.318Z,0.00
2023-02-06T04:41:09.325Z,0.00
2023-02-06T04:42:09.299Z,0.00
2023-02-06T04:43:09.340Z,0.00
2023-02-06T04:44:09.289Z,0.00
2023-02-06T04:45:09.355Z,0.00
2023-02-06T04:46:09.318Z,0.00
2023-02-06T04:47:09.305Z,0.00
2023-02-06T04:48:09.257Z,0.00
2023-02-06T04:49:09.260Z,0.00
2023-02-06T04:50:09.221Z,0.00
2023-02-06T04:51:09.222Z,0.00
2023-02-06T04:52:09.202Z,0.00
2023-02-06T04:53:09.198Z,0.00
2023-02-06T04:54:09.173Z,0.00
2023-02-06T04:55:09.176Z,0.00
2023-02-06T04:56:09.182Z,0.00
2023-02-06T04:57:09.151Z,0.00
2023-02-06T04:58:09.181Z,0.00
2023-02-06T04:59:09.130Z,0.00
2023-02-06T05:00:09.133Z,0.00
2023-02-06T05:01:09.144Z,0.00
2023-02-06T05:02:09.156Z,0.00
2023-02-06T05:03:09.134Z,0.00
2023-02-06T05:04:09.092Z,0.00
2023-02-06T05:05:09.069Z,0.00
2023-02-06T05:06:09.065Z,0.00
2023-02-06T05:07:09.075Z,0.00
2023-02-06T05:08:09.046Z,0.00
2023-02-06T05:09:09.044Z,0.00
2023-02-06T05:10:09.050Z,0.00
2023-02-06T05:11:09.023Z,0.00
2023-02-06T05:12:09.001Z,0.00
2023-02-06T05:13:09.003Z,0.00
2023-02-06T05:14:08.973Z,0.00
2023-02-06T05:15:08.981Z,0.00
2023-02-06T05:16:09.002Z,0.00
2023-02-06T05:17:08.938Z,0.00
2023-02-06T05:18:09.023Z,0.00
2023-02-06T05:19:08.962Z,0.00
2023-02-06T05:20:08.935Z,0.00
2023-02-06T05:21:08.906Z,0.00
2023-02-06T05:22:08.900Z,0.00
2023-02-06T05:23:08.906Z,0.00
2023-02-06T05:24:08.864Z,0.00
2023-02-06T05:25:08.897Z,0.00
2023-02-06T05:26:08.872Z,0.00
2023-02-06T05:27:08.841Z,0.00
2023-02-06T05:28:08.887Z,0.00
2023-02-06T05:29:08.815Z,0.00
2023-02-06T05:30:08.847Z,0.00
2023-02-06T05:31:08.955Z,0.00
2023-02-06T05:32:08.793Z,0.00
2023-02-06T05:33:08.884Z,0.00
2023-02-06T05:34:08.770Z,0.00
2023-02-06T05:35:08.892Z,0.00
2023-02-06T05:36:08.753Z,0.00
2023-02-06T05:37:08.755Z,0.00
2023-02-06T05:38:08.733Z,0.00
2023-02-06T05:39:08.723Z,0.00
2023-02-06T05:40:08.727Z,0.00
2023-02-06T05:41:08.712Z,0.00
2023-02-06T05:42:08.752Z,0.00
2023-02-06T05:43:08.704Z,0.00
2023-02-06T05:44:08.676Z,0.00
2023-02-06T05:45:08.849Z,0.00
2023-02-06T05:46:08.687Z,0.00
2023-02-06T05:47:08.662Z,0.00
2023-02-06T05:48:08.664Z,0.00
2023-02-06T05:49:08.617Z,0.00
2023-02-06T05:50:08.663Z,0.00
2023-02-06T05:51:08.739Z,0.00
2023-02-06T05:52:08.594Z,0.00
2023-02-06T05:53:08.642Z,0.00
2023-02-06T05:54:08.564Z,0.00
2023-02-06T05:55:08.632Z,0.00
2023-02-06T05:56:08.555Z,0.00
2023-02-06T05:57:08.609Z,0.00
2023-02-06T05:58:08.546Z,0.00
2023-02-06T05:59:08.574Z,0.00
2023-02-06T06:00:08.539Z,0.00
2023-02-06T06:01:08.495Z,0.00
2023-02-06T06:02:08.514Z,0.00
2023-02-06T06:03:08.514Z,0.00
2023-02-06T06:04:08.640Z,0.00
2023-02-06T06:05:08.537Z,0.00
2023-02-06T06:06:08.447Z,0.00
2023-02-06T06:07:08.462Z,0.00
2023-02-06T06:08:08.445Z,0.00
2023-02-06T06:09:08.666Z,0.00
2023-02-06T06:10:08.442Z,0.00
2023-02-06T06:11:08.398Z,0.00
2023-02-06T06:12:08.456Z,0.00
2023-02-06T06:13:08.419Z,0.00
2023-02-06T06:14:08.398Z,0.00
2023-02-06T06:15:08.381Z,0.00
2023-02-06T06:16:08.426Z,0.00
2023-02-06T06:17:08.388Z,0.00
2023-02-06T06:18:08.351Z,0.00
2023-02-06T06:19:08.343Z,0.00
2023-02-06T06:20:08.403Z,0.00
2023-02-06T06:21:08.293Z,0.00
2023-02-06T06:22:08.397Z,0.00
2023-02-06T06:23:08.378Z,0.00
2023-02-06T06:24:08.281Z,0.00
2023-02-06T06:25:08.213Z,1.00
2023-02-06T06:26:08.319Z,1.00
2023-02-06T06:27:08.204Z,1.00
2023-02-06T06:28:08.644Z,1.00
2023-02-06T06:29:08.212Z,1.00
2023-02-06T06:30:08.242Z,2.00
2023-02-06T06:31:08.252Z,2.00
2023-02-06T06:32:08.247Z,1.00
2023-02-06T06:33:08.124Z,1.00
2023-02-06T06:34:08.165Z,4.00
2023-02-06T06:35:08.113Z,7.00
2023-02-06T06:36:08.098Z,3.00
2023-02-06T06:37:08.113Z,2.00
2023-02-06T06:38:08.054Z,4.00
2023-02-06T06:39:08.063Z,8.00
2023-02-06T06:40:08.074Z,7.00
2023-02-06T06:41:08.047Z,6.00
2023-02-06T06:42:08.217Z,12.00
2023-02-06T06:43:08.030Z,13.00
2023-02-06T06:44:08.163Z,16.00
2023-02-06T06:45:08.026Z,22.00
2023-02-06T06:46:08.053Z,24.00
2023-02-06T06:47:07.981Z,27.00
2023-02-06T06:48:08.026Z,35.00
2023-02-06T06:49:08.043Z,39.00
2023-02-06T06:50:07.938Z,43.00
2023-02-06T06:51:07.936Z,53.00
2023-02-06T06:52:19.599Z,57.00
2023-02-06T06:53:08.965Z,65.00
2023-02-06T06:54:07.905Z,75.00
2023-02-06T06:55:08.071Z,86.00
2023-02-06T06:56:07.884Z,95.00
2023-02-06T06:57:08.019Z,103.00
2023-02-06T06:58:07.896Z,124.00
2023-02-06T06:59:08.088Z,135.00
2023-02-06T07:00:07.857Z,148.00
2023-02-06T07:01:07.862Z,165.00
2023-02-06T07:02:08.002Z,182.00
2023-02-06T07:03:07.889Z,193.00
2023-02-06T07:04:07.851Z,207.00
2023-02-06T07:05:07.798Z,221.00
2023-02-06T07:06:07.791Z,235.00
2023-02-06T07:07:07.864Z,254.00
2023-02-06T07:08:07.767Z,265.00
2023-02-06T07:09:08.037Z,275.00
2023-02-06T07:10:07.832Z,300.00
2023-02-06T07:11:07.757Z,325.00
2023-02-06T07:12:07.737Z,353.00
2023-02-06T07:13:07.767Z,381.00
2023-02-06T07:14:07.802Z,398.00
2023-02-06T07:15:07.924Z,433.00
2023-02-06T07:16:07.737Z,455.00
2023-02-06T07:17:07.675Z,493.00
2023-02-06T07:18:07.657Z,513.00
2023-02-06T07:19:07.696Z,558.00
2023-02-06T07:20:07.637Z,608.00
2023-02-06T07:21:07.629Z,645.00
2023-02-06T07:22:07.819Z,670.00
2023-02-06T07:23:07.608Z,688.00
2023-02-06T07:24:07.692Z,706.00
2023-02-06T07:25:07.585Z,733.00
2023-02-06T07:26:07.567Z,788.00
2023-02-06T07:27:07.581Z,830.00
2023-02-06T07:28:07.729Z,861.00
2023-02-06T07:29:07.857Z,868.00
2023-02-06T07:30:07.532Z,894.00
2023-02-06T07:31:07.538Z,939.00
2023-02-06T07:32:07.635Z,969.00
2023-02-06T07:33:07.758Z,999.00
2023-02-06T07:34:07.527Z,1110.00
2023-02-06T07:35:07.950Z,1031.00
2023-02-06T07:36:07.475Z,1214.00
2023-02-06T07:37:07.475Z,1164.00
2023-02-06T07:38:07.462Z,1166.00
2023-02-06T07:39:07.436Z,1282.00
2023-02-06T07:40:07.462Z,1252.00
2023-02-06T07:41:07.421Z,1266.00
2023-02-06T07:42:07.403Z,1283.00
2023-02-06T07:43:07.490Z,1273.00
2023-02-06T07:44:07.388Z,1293.00
2023-02-06T07:45:07.719Z,1258.00
2023-02-06T07:46:07.420Z,1184.00
2023-02-06T07:47:07.366Z,1324.00
2023-02-06T07:48:07.346Z,1276.00
2023-02-06T07:49:07.809Z,1570.00
2023-02-06T07:50:07.334Z,1346.00
2023-02-06T07:51:07.378Z,1328.00
2023-02-06T07:52:08.069Z,1349.00
2023-02-06T07:53:07.423Z,1349.00
2023-02-06T07:54:07.278Z,1346.00
2023-02-06T07:55:07.330Z,1323.00
2023-02-06T07:56:07.251Z,1302.00
2023-02-06T07:57:07.257Z,1289.00
2023-02-06T07:58:07.225Z,1299.00
2023-02-06T07:59:07.247Z,1305.00
2023-02-06T08:00:07.217Z,1393.00
2023-02-06T08:01:07.226Z,1440.00
2023-02-06T08:02:07.201Z,1492.00
2023-02-06T08:03:07.194Z,1519.00
2023-02-06T08:04:07.260Z,1559.00
2023-02-06T08:05:07.184Z,1538.00
2023-02-06T08:06:07.142Z,1533.00
2023-02-06T08:07:07.150Z,1514.00
2023-02-06T08:08:07.160Z,1507.00
2023-02-06T08:09:07.190Z,1572.00
2023-02-06T08:10:07.143Z,1417.00
2023-02-06T08:11:07.144Z,1273.00
2023-02-06T08:12:07.084Z,1353.00
2023-02-06T08:13:07.106Z,1401.00
2023-02-06T08:14:07.113Z,1319.00
2023-02-06T08:15:07.066Z,1475.00
2023-02-06T08:16:07.047Z,1484.00
2023-02-06T08:17:07.074Z,1590.00
2023-02-06T08:18:07.121Z,1601.00
2023-02-06T08:19:07.019Z,1689.00
2023-02-06T08:20:07.001Z,1893.00
2023-02-06T08:21:07.014Z,1906.00
2023-02-06T08:22:07.018Z,2066.00
2023-02-06T08:23:07.016Z,1954.00
2023-02-06T08:24:06.960Z,1926.00
2023-02-06T08:25:06.979Z,2144.00
2023-02-06T08:26:06.938Z,2204.00
2023-02-06T08:27:06.968Z,2161.00
2023-02-06T08:28:06.984Z,2246.00
2023-02-06T08:29:06.957Z,2424.00
2023-02-06T08:30:06.970Z,2592.00
2023-02-06T08:31:07.630Z,2418.00
2023-02-06T08:32:06.881Z,2715.00
2023-02-06T08:33:06.877Z,3255.00
2023-02-06T08:34:06.899Z,3392.00
2023-02-06T08:35:06.917Z,3501.00
2023-02-06T08:36:06.875Z,3517.00
2023-02-06T08:37:06.963Z,3547.00
2023-02-06T08:38:06.836Z,3555.00
2023-02-06T08:39:06.795Z,3290.00
2023-02-06T08:40:06.845Z,3167.00
2023-02-06T08:41:06.840Z,3313.00
2023-02-06T08:42:07.010Z,3376.00
2023-02-06T08:43:06.787Z,3282.00
2023-02-06T08:44:06.746Z,2932.00
2023-02-06T08:45:06.794Z,2964.00
2023-02-06T08:46:06.802Z,2825.00
2023-02-06T08:47:10.481Z,2903.00
2023-02-06T08:48:06.712Z,2733.00
2023-02-06T08:49:06.726Z,2669.00
2023-02-06T08:50:06.723Z,2926.00
2023-02-06T08:51:06.912Z,3214.00
2023-02-06T08:52:06.675Z,3597.00
2023-02-06T08:53:06.690Z,3502.00
2023-02-06T08:54:06.694Z,3933.00
2023-02-06T08:55:06.661Z,4525.00
2023-02-06T08:56:06.656Z,4579.00
2023-02-06T08:57:06.821Z,4618.00
2023-02-06T08:58:06.632Z,4533.00
2023-02-06T08:59:06.668Z,4343.00
2023-02-06T09:00:06.632Z,4157.00
2023-02-06T09:01:06.630Z,4113.00
2023-02-06T09:02:08.331Z,3904.00
2023-02-06T09:03:06.648Z,3984.00
2023-02-06T09:04:06.616Z,3984.00
2023-02-06T09:05:06.534Z,3955.00
2023-02-06T09:06:10.376Z,3784.00
2023-02-06T09:07:06.526Z,3825.00
2023-02-06T09:08:06.498Z,3759.00
2023-02-06T09:09:06.479Z,3747.00
2023-02-06T09:10:07.428Z,3264.00
2023-02-06T09:11:06.488Z,3471.00
2023-02-06T09:12:06.489Z,3654.00
2023-02-06T09:13:06.471Z,3749.00
2023-02-06T09:14:06.436Z,3678.00
2023-02-06T09:15:06.422Z,3594.00
2023-02-06T09:16:06.624Z,3723.00
2023-02-06T09:17:06.416Z,3195.00
2023-02-06T09:18:06.390Z,3063.00
2023-02-06T09:19:06.382Z,3467.00
2023-02-06T09:20:06.405Z,2922.00
2023-02-06T09:21:06.372Z,3153.00
2023-02-06T09:22:07.251Z,3882.00
2023-02-06T09:23:06.351Z,3907.00
2023-02-06T09:24:06.715Z,3785.00
2023-02-06T09:25:06.308Z,4270.00
2023-02-06T09:26:06.306Z,4388.00
2023-02-06T09:27:06.338Z,4506.00
2023-02-06T09:28:06.460Z,4848.00
2023-02-06T09:29:06.266Z,4702.00
2023-02-06T09:30:06.276Z,4637.00
2023-02-06T09:31:06.421Z,4553.00
2023-02-06T09:32:06.353Z,4466.00
2023-02-06T09:33:06.245Z,3920.00
2023-02-06T09:34:06.239Z,3497.00
2023-02-06T09:35:06.202Z,3866.00
2023-02-06T09:36:06.198Z,4023.00
2023-02-06T09:37:06.205Z,3941.00
2023-02-06T09:38:06.234Z,3678.00
2023-02-06T09:39:06.197Z,4620.00
2023-02-06T09:40:06.202Z,4893.00
2023-02-06T09:41:06.240Z,5409.00
2023-02-06T09:42:06.279Z,6026.00
2023-02-06T09:43:06.182Z,6186.00
2023-02-06T09:44:06.177Z,5693.00
2023-02-06T09:45:06.166Z,4013.00
2023-02-06T09:46:06.171Z,3936.00
2023-02-06T09:47:06.139Z,4941.00
2023-02-06T09:48:06.121Z,5305.00
2023-02-06T09:49:06.154Z,3980.00
2023-02-06T09:50:06.159Z,2630.00
2023-02-06T09:51:06.089Z,3463.00
2023-02-06T09:52:06.094Z,5191.00
2023-02-06T09:53:06.079Z,5802.00
2023-02-06T09:54:06.176Z,6191.00
2023-02-06T09:55:06.061Z,6158.00
2023-02-06T09:56:06.065Z,5276.00
2023-02-06T09:57:06.253Z,5245.00
2023-02-06T09:58:06.011Z,6326.00
2023-02-06T09:59:06.021Z,6790.00
2023-02-06T10:00:06.034Z,7361.00
2023-02-06T10:01:06.033Z,8022.00
2023-02-06T10:02:05.970Z,6708.00
2023-02-06T10:03:06.009Z,5867.00
2023-02-06T10:04:05.955Z,5929.00
2023-02-06T10:05:06.045Z,6749.00
2023-02-06T10:06:05.934Z,6411.00
2023-02-06T10:07:05.978Z,6125.00
2023-02-06T10:08:05.900Z,6897.00
2023-02-06T10:09:05.941Z,6487.00
2023-02-06T10:10:05.862Z,5176.00
2023-02-06T10:11:05.840Z,5892.00
2023-02-06T10:12:05.921Z,6098.00
2023-02-06T10:13:05.859Z,6828.00
2023-02-06T10:14:05.953Z,6696.00
2023-02-06T10:15:05.804Z,6374.00
2023-02-06T10:16:05.811Z,6056.00
2023-02-06T10:17:05.857Z,6403.00
2023-02-06T10:18:05.774Z,6899.00
2023-02-06T10:19:05.776Z,6393.00
2023-02-06T10:20:05.752Z,5238.00
2023-02-06T10:21:06.075Z,4752.00
2023-02-06T10:22:05.740Z,4646.00
2023-02-06T10:23:05.773Z,4548.00
2023-02-06T10:24:05.780Z,4943.00
2023-02-06T10:25:05.730Z,5484.00
2023-02-06T10:26:05.727Z,6833.00
2023-02-06T10:27:05.781Z,7258.00
2023-02-06T10:28:05.797Z,7310.00
2023-02-06T10:29:05.775Z,7106.00
2023-02-06T10:30:05.719Z,6979.00
2023-02-06T10:31:05.729Z,6949.00
2023-02-06T10:32:05.663Z,7556.00
2023-02-06T10:33:09.708Z,8011.00
2023-02-06T10:34:06.632Z,8489.00
2023-02-06T10:35:05.624Z,8255.00
2023-02-06T10:36:05.640Z,7469.00
2023-02-06T10:37:05.611Z,7711.00
2023-02-06T10:38:05.632Z,7206.00
2023-02-06T10:39:05.581Z,7209.00
2023-02-06T10:40:05.571Z,9735.00
2023-02-06T10:41:05.560Z,8376.00
2023-02-06T10:42:05.639Z,8069.00
2023-02-06T10:43:05.562Z,7564.00
2023-02-06T10:44:05.532Z,7918.00
2023-02-06T10:45:19.006Z,7268.00
2023-02-06T10:46:06.571Z,7328.00
2023-02-06T10:47:05.826Z,7908.00
2023-02-06T10:48:05.561Z,7784.00
2023-02-06T10:49:06.219Z,7268.00
2023-02-06T10:50:05.533Z,6872.00
2023-02-06T10:51:05.550Z,7406.00
2023-02-06T10:52:05.482Z,7086.00
2023-02-06T10:53:05.476Z,7624.00
2023-02-06T10:54:05.489Z,8191.00
2023-02-06T10:55:05.402Z,7698.00
2023-02-06T10:56:05.453Z,7603.00
2023-02-06T10:57:05.449Z,7458.00
2023-02-06T10:58:05.433Z,7586.00
2023-02-06T10:59:05.372Z,7419.00
2023-02-06T11:00:05.370Z,6994.00
2023-02-06T11:01:13.885Z,7658.00
2023-02-06T11:02:06.441Z,8130.00
2023-02-06T11:03:07.866Z,6781.00
2023-02-06T11:04:05.334Z,6111.00
2023-02-06T11:05:05.323Z,6109.00
2023-02-06T11:06:05.340Z,6445.00
2023-02-06T11:07:05.270Z,6927.00
2023-02-06T11:08:05.341Z,6880.00
2023-02-06T11:09:05.295Z,6304.00
2023-02-06T11:10:05.284Z,5759.00
2023-02-06T11:11:05.267Z,5576.00
2023-02-06T11:12:05.297Z,5056.00
2023-02-06T11:13:05.228Z,5265.00
2023-02-06T11:14:05.258Z,5324.00
2023-02-06T11:15:05.223Z,5272.00
2023-02-06T11:16:05.245Z,6334.00
2023-02-06T11:17:05.174Z,7572.00
2023-02-06T11:18:05.232Z,7567.00
2023-02-06T11:19:05.182Z,7549.00
2023-02-06T11:20:05.151Z,6634.00
2023-02-06T11:21:05.137Z,6221.00
2023-02-06T11:22:05.179Z,6244.00
2023-02-06T11:23:05.145Z,6234.00
2023-02-06T11:24:05.129Z,6423.00
2023-02-06T11:25:05.161Z,6259.00
2023-02-06T11:26:05.127Z,5426.00
2023-02-06T11:27:05.074Z,4949.00
2023-02-06T11:28:05.143Z,4630.00
2023-02-06T11:29:05.080Z,4777.00
2023-02-06T11:30:05.060Z,5036.00
2023-02-06T11:31:05.042Z,4607.00
2023-02-06T11:32:05.034Z,4921.00
2023-02-06T11:33:05.262Z,5843.00
2023-02-06T11:34:05.006Z,6302.00
2023-02-06T11:35:05.000Z,5679.00
2023-02-06T11:36:04.999Z,4935.00
2023-02-06T11:37:04.993Z,4501.00
2023-02-06T11:38:05.553Z,4885.00
2023-02-06T11:39:04.979Z,5217.00
2023-02-06T11:40:04.935Z,4896.00
2023-02-06T11:41:04.917Z,4310.00
2023-02-06T11:42:04.916Z,4176.00
2023-02-06T11:43:05.098Z,5420.00
2023-02-06T11:44:04.901Z,6548.00
2023-02-06T11:45:04.907Z,6656.00
2023-02-06T11:46:04.934Z,7069.00
2023-02-06T11:47:04.854Z,7157.00
2023-02-06T11:48:04.877Z,8429.00
2023-02-06T11:49:05.046Z,8944.00
2023-02-06T11:50:04.870Z,8512.00
2023-02-06T11:51:04.842Z,8256.00
2023-02-06T11:52:04.837Z,8620.00
2023-02-06T11:53:04.804Z,8182.00
2023-02-06T11:54:04.845Z,7802.00
2023-02-06T11:55:04.808Z,7688.00
2023-02-06T11:56:04.799Z,7306.00
2023-02-06T11:57:04.807Z,6734.00
2023-02-06T11:58:04.763Z,6944.00
2023-02-06T11:59:06.871Z,7647.00
2023-02-06T12:00:04.895Z,7468.00
2023-02-06T12:01:04.759Z,6105.00
2023-02-06T12:02:04.715Z,4617.00
2023-02-06T12:03:04.757Z,3724.00
2023-02-06T12:04:04.674Z,3085.00
2023-02-06T12:05:04.674Z,2998.00
2023-02-06T12:06:04.636Z,3606.00
2023-02-06T12:07:04.658Z,4868.00
2023-02-06T12:08:04.703Z,5611.00
2023-02-06T12:09:04.615Z,6094.00
2023-02-06T12:10:04.606Z,6307.00
2023-02-06T12:11:04.599Z,6631.00
2023-02-06T12:12:04.576Z,7562.00
2023-02-06T12:13:04.583Z,7497.00
2023-02-06T12:14:04.549Z,7379.00
2023-02-06T12:15:23.678Z,7499.00
2023-02-06T12:16:05.575Z,7601.00
2023-02-06T12:17:04.534Z,7885.00
2023-02-06T12:18:04.498Z,7954.00
2023-02-06T12:19:04.492Z,8641.00
2023-02-06T12:20:04.489Z,7370.00
2023-02-06T12:21:04.492Z,6319.00
2023-02-06T12:22:04.491Z,5657.00
2023-02-06T12:23:04.445Z,5090.00
2023-02-06T12:24:04.569Z,5790.00
2023-02-06T12:25:04.448Z,7106.00
2023-02-06T12:26:04.420Z,4377.00
2023-02-06T12:27:04.412Z,9086.00
2023-02-06T12:28:04.429Z,8175.00
2023-02-06T12:29:04.426Z,7718.00
2023-02-06T12:30:04.404Z,8296.00
2023-02-06T12:31:04.435Z,9103.00
2023-02-06T12:32:04.398Z,7748.00
2023-02-06T12:33:04.340Z,9084.00
2023-02-06T12:34:04.413Z,4904.00
2023-02-06T12:35:04.352Z,11003.00
2023-02-06T12:36:04.351Z,7459.00
2023-02-06T12:37:04.297Z,9931.00
2023-02-06T12:38:04.324Z,7079.00
2023-02-06T12:39:04.279Z,6837.00
2023-02-06T12:40:04.303Z,4227.00
2023-02-06T12:41:04.550Z,11417.00
2023-02-06T12:42:04.275Z,8868.00
2023-02-06T12:43:04.242Z,6817.00
2023-02-06T12:44:04.216Z,4333.00